createdAt,value
2019-04-23T00:02:19.754Z,1.40
2019-04-23T00:04:23.908Z,1.00
2019-04-23T00:06:32.221Z,1.33
2019-04-23T00:10:42.564Z,1.03
2019-04-23T00:15:04.412Z,1.20
2019-04-23T00:17:04.706Z,1.27
2019-04-23T00:19:10.298Z,1.30
2019-04-23T00:21:42.994Z,1.43
2019-04-23T00:23:53.090Z,1.43
2019-04-23T00:26:08.072Z,1.27
2019-04-23T00:28:23.884Z,1.50
2019-04-23T00:30:30.146Z,1.37
2019-04-23T00:32:37.942Z,1.10
2019-04-23T00:34:44.479Z,1.53
2019-04-23T00:36:47.609Z,1.57
2019-04-23T00:43:17.367Z,1.20
2019-04-23T00:45:24.748Z,1.50
2019-04-23T00:47:33.296Z,1.30
2019-04-23T00:49:37.100Z,1.50
2019-04-23T00:51:51.289Z,1.70
2019-04-23T00:53:56.838Z,1.30
2019-04-23T00:56:20.631Z,1.40
2019-04-23T00:58:25.015Z,1.30
2019-04-23T01:02:45.774Z,1.20
2019-04-23T01:05:11.719Z,1.20
2019-04-23T01:07:11.328Z,1.53
2019-04-23T01:09:48.901Z,1.33
2019-04-23T01:12:06.091Z,1.23
2019-04-23T01:14:20.893Z,1.50
2019-04-23T01:16:20.956Z,1.50
2019-04-23T01:19:18.970Z,1.10
2019-04-23T01:20:54.144Z,1.47
2019-04-23T01:23:01.116Z,1.57
2019-04-23T01:25:36.421Z,1.33
2019-04-23T01:28:23.480Z,1.73
2019-04-23T01:30:21.167Z,1.27
2019-04-23T01:32:33.552Z,1.20
2019-04-23T01:34:38.860Z,1.87
2019-04-23T01:36:48.666Z,1.70
2019-04-23T01:38:55.695Z,1.63
2019-04-23T01:41:13.290Z,1.67
2019-04-23T01:43:16.439Z,1.43
2019-04-23T01:45:30.739Z,1.20
2019-04-23T01:47:35.503Z,1.10
2019-04-23T01:49:44.990Z,1.37
2019-04-23T01:51:46.866Z,1.10
2019-04-23T01:53:55.058Z,1.60
2019-04-23T01:55:59.185Z,1.77
2019-04-23T01:58:20.391Z,1.10
2019-04-23T02:00:17.362Z,1.53
2019-04-23T02:02:19.011Z,1.00
2019-04-23T02:04:47.790Z,1.40
2019-04-23T02:06:48.138Z,1.40
2019-04-23T02:08:52.486Z,1.33
2019-04-23T02:11:07.612Z,1.67
2019-04-23T02:15:23.124Z,0.90
2019-04-23T02:17:29.816Z,0.97
2019-04-23T02:19:40.112Z,1.20
2019-04-23T02:21:52.779Z,1.20
2019-04-23T02:23:57.258Z,1.43
2019-04-23T02:26:10.683Z,1.47
2019-04-23T02:32:38.219Z,1.70
2019-04-23T02:34:57.784Z,1.80
2019-04-23T02:38:54.549Z,1.07
2019-04-23T02:45:09.633Z,1.40
2019-04-23T02:47:34.408Z,1.33
2019-04-23T02:49:27.007Z,1.20
2019-04-23T02:51:35.229Z,1.70
2019-04-23T02:57:56.192Z,1.40
2019-04-23T03:02:37.274Z,1.60
2019-04-23T03:04:45.774Z,1.70
2019-04-23T03:09:14.362Z,1.47
2019-04-23T03:11:32.588Z,1.47
2019-04-23T03:13:38.533Z,1.27
2019-04-23T03:23:17.112Z,1.40
2019-04-23T03:27:28.739Z,1.27
2019-04-23T03:38:07.619Z,1.70
2019-04-23T03:42:37.951Z,1.60
2019-04-23T03:45:08.373Z,1.40
2019-04-23T03:47:04.054Z,1.40
2019-04-23T03:49:07.727Z,1.80
2019-04-23T03:51:11.578Z,2.00
2019-04-23T03:53:29.856Z,1.80
2019-04-23T03:57:32.770Z,2.27
2019-04-23T04:01:46.359Z,1.57
2019-04-23T04:10:35.283Z,2.20
2019-04-23T04:12:39.935Z,1.40
2019-04-23T04:14:49.225Z,1.93
2019-04-23T04:17:09.484Z,1.90
2019-04-23T04:21:09.569Z,1.80
2019-04-23T04:23:33.278Z,1.60
2019-04-23T04:25:42.822Z,2.47
2019-04-23T04:27:53.887Z,1.70
2019-04-23T04:34:10.791Z,2.30
2019-04-23T04:36:14.343Z,2.00
2019-04-23T04:38:25.658Z,2.33
2019-04-23T04:46:47.807Z,1.70
2019-04-23T04:55:03.151Z,2.10
2019-04-23T04:57:20.455Z,2.17
2019-04-23T05:07:56.592Z,1.80
2019-04-23T05:10:29.683Z,2.10
2019-04-23T05:12:27.494Z,2.80
2019-04-23T05:14:35.456Z,2.13
2019-04-23T05:16:37.075Z,2.10
2019-04-23T05:21:21.378Z,3.10
2019-04-23T05:23:54.549Z,2.47
2019-04-23T05:25:45.048Z,3.00
2019-04-23T05:28:03.122Z,2.37
2019-04-23T05:30:02.838Z,2.23
2019-04-23T05:31:58.138Z,2.40
2019-04-23T05:34:22.266Z,2.60
2019-04-23T05:40:37.505Z,2.10
2019-04-23T05:42:31.750Z,3.13
2019-04-23T05:44:44.744Z,2.40
2019-04-23T05:46:45.938Z,2.77
2019-04-23T05:48:52.614Z,2.87
2019-04-23T05:51:09.580Z,3.03
2019-04-23T05:53:05.297Z,2.60
2019-04-23T05:55:07.525Z,2.67
2019-04-23T05:57:14.235Z,1.90
2019-04-23T05:59:23.037Z,2.47
2019-04-23T06:03:54.436Z,2.37
2019-04-23T06:05:57.930Z,3.10
2019-04-23T06:07:53.501Z,2.67
2019-04-23T06:12:19.046Z,2.50
2019-04-23T06:16:41.818Z,2.30
2019-04-23T06:18:51.127Z,3.07
2019-04-23T06:20:55.588Z,2.27
2019-04-23T06:22:56.084Z,2.40
2019-04-23T06:25:30.780Z,3.20
2019-04-23T06:27:13.492Z,2.73
2019-04-23T06:29:26.090Z,2.80
2019-04-23T06:31:23.030Z,2.63
2019-04-23T06:33:35.878Z,2.53
2019-04-23T06:35:36.020Z,3.00
2019-04-23T06:38:03.303Z,2.63
2019-04-23T06:39:48.629Z,2.40
2019-04-23T06:46:11.855Z,3.57
2019-04-23T06:48:23.684Z,2.80
2019-04-23T06:50:48.817Z,3.03
2019-04-23T06:52:47.161Z,3.00
2019-04-23T06:55:03.256Z,3.23
2019-04-23T06:59:13.001Z,2.93
2019-04-23T07:01:19.221Z,3.00
2019-04-23T07:03:31.802Z,3.87
2019-04-23T07:06:05.381Z,2.90
2019-04-23T07:07:59.498Z,3.07
2019-04-23T07:10:06.124Z,2.73
2019-04-23T07:12:08.682Z,3.20
2019-04-23T07:14:17.070Z,2.90
2019-04-23T07:16:22.818Z,3.20
2019-04-23T07:18:29.289Z,3.20
2019-04-23T07:25:32.785Z,3.43
2019-04-23T07:27:58.781Z,3.23
2019-04-23T07:32:05.297Z,2.93
2019-04-23T07:34:12.373Z,2.97
2019-04-23T07:38:55.020Z,3.43
2019-04-23T07:41:01.720Z,4.53
2019-04-23T07:43:23.306Z,3.30
2019-04-23T07:52:54.562Z,2.67
2019-04-23T07:54:42.535Z,2.87
2019-04-23T07:56:42.230Z,3.10
2019-04-23T07:58:44.818Z,4.03
2019-04-23T08:01:15.286Z,3.33
2019-04-23T08:05:50.922Z,3.37
2019-04-23T08:08:15.040Z,3.80
2019-04-23T08:10:35.798Z,3.43
2019-04-23T08:13:00.969Z,3.73
2019-04-23T08:14:56.601Z,3.07
2019-04-23T08:17:04.022Z,3.03
2019-04-23T08:18:57.794Z,3.83
2019-04-23T08:21:12.052Z,3.53
2019-04-23T08:23:56.919Z,3.20
2019-04-23T08:28:49.937Z,3.70
2019-04-23T08:30:46.531Z,3.00
2019-04-23T08:33:03.935Z,4.17
2019-04-23T08:35:06.039Z,3.60
2019-04-23T08:39:30.540Z,3.13
2019-04-23T08:41:33.893Z,3.70
2019-04-23T08:53:03.722Z,5.10
2019-04-23T08:57:22.198Z,3.20
2019-04-23T09:01:39.662Z,4.07
2019-04-23T09:03:40.911Z,4.43
2019-04-23T09:07:59.858Z,4.03
2019-04-23T09:10:04.743Z,3.80
2019-04-23T09:12:14.808Z,3.77
2019-04-23T09:14:06.577Z,4.03
2019-04-23T09:16:27.366Z,4.20
2019-04-23T09:18:48.951Z,3.97
2019-04-23T09:20:52.996Z,4.00
2019-04-23T09:22:55.100Z,4.07
2019-04-23T09:25:16.648Z,3.80
2019-04-23T09:27:26.305Z,4.20
2019-04-23T09:29:23.173Z,3.93
2019-04-23T09:31:56.959Z,4.30
2019-04-23T09:33:58.682Z,4.13
2019-04-23T09:43:43.357Z,3.90
2019-04-23T09:48:09.111Z,3.60
2019-04-23T09:50:36.672Z,4.57
2019-04-23T09:52:46.899Z,4.30
2019-04-23T09:54:57.632Z,4.60
2019-04-23T09:56:52.722Z,3.97
2019-04-23T09:59:10.982Z,4.93
2019-04-23T10:01:23.798Z,4.10
2019-04-23T10:03:16.387Z,4.40
2019-04-23T10:05:20.447Z,3.93
2019-04-23T10:07:25.107Z,4.43
2019-04-23T10:09:20.371Z,4.73
2019-04-23T10:13:36.387Z,4.10
2019-04-23T10:15:44.726Z,4.47
2019-04-23T10:17:47.224Z,3.90
2019-04-23T10:19:53.024Z,4.40
2019-04-23T10:21:57.565Z,4.17
2019-04-23T10:24:03.355Z,4.63
2019-04-23T10:26:28.285Z,4.77
2019-04-23T10:28:53.873Z,4.00
2019-04-23T10:31:00.689Z,4.60
2019-04-23T10:33:05.619Z,4.63
2019-04-23T10:35:24.753Z,5.00
2019-04-23T10:37:29.951Z,4.23
2019-04-23T10:39:28.364Z,5.10
2019-04-23T10:41:30.592Z,3.63
2019-04-23T10:43:39.168Z,4.47
2019-04-23T10:46:27.858Z,4.10
2019-04-23T10:49:19.796Z,4.17
2019-04-23T10:51:30.685Z,4.37
2019-04-23T10:53:37.937Z,4.30
2019-04-23T10:55:51.121Z,4.30
2019-04-23T10:57:54.092Z,4.17
2019-04-23T10:59:55.853Z,3.77
2019-04-23T11:02:34.998Z,4.20
2019-04-23T11:04:38.305Z,4.00
2019-04-23T11:06:36.426Z,3.77
2019-04-23T11:10:33.236Z,3.70
2019-04-23T11:13:09.307Z,4.40
2019-04-23T11:15:28.846Z,4.03
2019-04-23T11:17:32.999Z,3.77
2019-04-23T11:19:44.357Z,4.30
2019-04-23T11:24:01.748Z,4.10
2019-04-23T11:30:36.479Z,4.00
2019-04-23T11:35:01.920Z,3.90
2019-04-23T11:38:54.795Z,4.17
2019-04-23T11:40:54.232Z,4.33
2019-04-23T11:45:24.808Z,4.90
2019-04-23T11:48:02.516Z,3.70
2019-04-23T11:49:46.253Z,4.13
2019-04-23T11:52:08.305Z,3.37
2019-04-23T11:54:07.314Z,4.03
2019-04-23T12:00:26.480Z,3.67
2019-04-23T12:02:57.555Z,3.77
2019-04-23T12:05:41.009Z,3.80
2019-04-23T12:07:53.844Z,4.57
2019-04-23T12:10:19.992Z,4.53
2019-04-23T12:12:33.036Z,3.70
2019-04-23T12:15:09.694Z,3.90
2019-04-23T12:17:24.898Z,3.60
2019-04-23T12:21:28.370Z,4.20
2019-04-23T12:23:54.576Z,3.70
2019-04-23T12:26:07.330Z,2.90
2019-04-23T12:28:07.219Z,3.67
2019-04-23T12:30:16.333Z,3.50
2019-04-23T12:32:43.037Z,3.60
2019-04-23T12:34:55.688Z,4.23
2019-04-23T12:37:04.172Z,3.73
2019-04-23T12:39:15.483Z,4.30
2019-04-23T12:41:14.635Z,3.63
2019-04-23T12:43:19.125Z,3.20
2019-04-23T12:47:53.633Z,3.63
2019-04-23T12:50:05.439Z,3.27
2019-04-23T12:51:53.782Z,5.13
2019-04-23T12:53:49.361Z,3.20
2019-04-23T12:56:03.717Z,4.07
2019-04-23T12:58:11.028Z,3.63
2019-04-23T13:00:17.356Z,3.60
2019-04-23T13:02:33.089Z,4.67
2019-04-23T13:04:32.463Z,3.70
2019-04-23T13:06:37.166Z,3.43
2019-04-23T13:08:48.378Z,3.23
2019-04-23T13:13:23.986Z,3.80
2019-04-23T13:15:22.794Z,3.90
2019-04-23T13:17:40.507Z,3.47
2019-04-23T13:23:49.421Z,3.43
2019-04-23T13:26:00.917Z,4.20
2019-04-23T13:30:25.381Z,3.60
2019-04-23T13:32:27.618Z,2.53
2019-04-23T13:34:41.483Z,3.73
2019-04-23T13:36:36.159Z,4.17
2019-04-23T13:39:03.286Z,4.03
2019-04-23T13:41:01.750Z,3.20
2019-04-23T13:45:18.339Z,4.07
2019-04-23T13:47:31.687Z,3.60
2019-04-23T13:49:31.615Z,3.67
2019-04-23T13:51:31.956Z,3.10
2019-04-23T13:55:42.881Z,3.40
2019-04-23T13:59:57.331Z,3.73
2019-04-23T14:02:04.031Z,3.20
2019-04-23T14:04:34.827Z,3.57
2019-04-23T14:06:34.532Z,3.47
2019-04-23T14:08:47.485Z,2.90
2019-04-23T14:10:39.712Z,3.70
2019-04-23T14:13:03.409Z,4.07
2019-04-23T14:15:10.737Z,4.47
2019-04-23T14:17:08.437Z,3.80
2019-04-23T14:19:02.472Z,3.60
2019-04-23T14:23:29.341Z,4.00
2019-04-23T14:25:50.671Z,3.00
2019-04-23T14:29:48.763Z,3.80
2019-04-23T14:31:43.318Z,4.00
2019-04-23T14:34:00.090Z,3.50
2019-04-23T14:38:19.587Z,3.30
2019-04-23T14:40:26.467Z,3.87
2019-04-23T14:42:24.573Z,4.30
2019-04-23T14:44:36.442Z,4.53
2019-04-23T14:46:50.154Z,4.00
2019-04-23T14:48:51.866Z,3.60
2019-04-23T14:51:04.524Z,4.13
2019-04-23T14:55:41.761Z,4.13
2019-04-23T14:59:35.877Z,3.43
2019-04-23T15:03:39.882Z,4.30
2019-04-23T15:05:52.737Z,3.70
2019-04-23T15:07:51.265Z,3.27
2019-04-23T15:10:01.108Z,4.10
2019-04-23T15:12:09.701Z,3.40
2019-04-23T15:14:23.517Z,3.97
2019-04-23T15:16:22.301Z,3.90
2019-04-23T15:18:55.893Z,3.93
2019-04-23T15:21:23.865Z,4.13
2019-04-23T15:23:25.544Z,3.40
2019-04-23T15:25:30.148Z,4.90
2019-04-23T15:27:59.968Z,3.80
2019-04-23T15:29:06.952Z,3.97
2019-04-23T15:31:33.219Z,3.40
2019-04-23T15:33:48.968Z,3.90
2019-04-23T15:35:59.789Z,4.20
2019-04-23T15:40:04.462Z,3.80
2019-04-23T15:46:20.174Z,3.70
2019-04-23T15:48:26.366Z,3.60
2019-04-23T15:50:29.815Z,3.60
2019-04-23T15:54:43.697Z,3.97
2019-04-23T15:56:53.215Z,3.33
2019-04-23T16:01:27.113Z,3.60
2019-04-23T16:02:52.633Z,3.83
2019-04-23T16:04:58.083Z,3.90
2019-04-23T16:07:02.552Z,4.72
2019-04-23T16:09:26.059Z,4.20
2019-04-23T16:11:45.416Z,4.60
2019-04-23T16:14:08.001Z,4.05
2019-04-23T16:15:59.632Z,3.60
2019-04-23T16:18:28.401Z,3.47
2019-04-23T16:20:38.584Z,3.70
2019-04-23T16:22:36.777Z,4.42
2019-04-23T16:24:52.980Z,3.62
2019-04-23T16:26:55.992Z,4.85
2019-04-23T16:29:16.487Z,4.28
2019-04-23T16:31:17.006Z,4.42
2019-04-23T16:35:29.163Z,5.30
2019-04-23T16:37:29.247Z,5.00
2019-04-23T16:39:30.768Z,4.60
2019-04-23T16:41:40.327Z,4.80
2019-04-23T16:43:50.453Z,4.53
2019-04-23T16:45:51.572Z,3.50
2019-04-23T16:48:08.425Z,3.97
2019-04-23T16:52:16.092Z,4.37
2019-04-23T16:54:24.648Z,4.20
2019-04-23T16:56:44.268Z,4.00
2019-04-23T17:00:51.248Z,3.90
2019-04-23T17:02:45.079Z,3.47
2019-04-23T17:04:54.705Z,3.47
2019-04-23T17:06:57.860Z,3.40
2019-04-23T17:08:59.882Z,3.53
2019-04-23T17:11:15.187Z,3.83
2019-04-23T17:13:25.610Z,3.90
2019-04-23T17:15:27.417Z,3.57
2019-04-23T17:17:27.350Z,4.10
2019-04-23T17:21:38.685Z,4.60
2019-04-23T17:24:01.225Z,3.80
2019-04-23T17:26:00.778Z,3.80
2019-04-23T17:28:12.746Z,4.00
2019-04-23T17:33:24.017Z,4.20
2019-04-23T17:38:21.007Z,3.20
2019-04-23T17:47:27.276Z,3.40
2019-04-23T17:50:01.589Z,4.00
2019-04-23T17:51:48.592Z,3.73
2019-04-23T17:53:54.467Z,4.27
2019-04-23T17:56:15.281Z,3.90
2019-04-23T17:58:22.050Z,3.40
2019-04-23T18:02:55.405Z,3.80
2019-04-23T18:04:44.014Z,3.93
2019-04-23T18:06:45.299Z,2.97
2019-04-23T18:11:09.612Z,3.47
2019-04-23T18:15:06.122Z,4.23
2019-04-23T18:17:17.865Z,4.47
2019-04-23T18:19:16.934Z,3.50
2019-04-23T18:21:50.570Z,4.77
2019-04-23T18:24:16.714Z,3.27
2019-04-23T18:35:47.587Z,4.80
2019-04-23T18:38:23.608Z,3.67
2019-04-23T18:40:21.499Z,3.60
2019-04-23T18:44:52.115Z,4.77
2019-04-23T18:46:43.523Z,3.53
2019-04-23T18:50:59.826Z,4.33
2019-04-23T18:53:37.949Z,4.50
2019-04-23T18:55:51.373Z,3.10
2019-04-23T18:57:40.229Z,4.17
2019-04-23T19:02:08.003Z,3.93
2019-04-23T19:04:19.804Z,4.97
2019-04-23T19:06:34.601Z,4.47
2019-04-23T19:11:51.236Z,4.33
2019-04-23T19:13:51.071Z,5.10
2019-04-23T19:15:50.988Z,4.57
2019-04-23T19:20:18.112Z,3.67
2019-04-23T19:22:42.820Z,4.17
2019-04-23T19:24:37.730Z,3.70
2019-04-23T19:31:16.675Z,4.30
2019-04-23T19:33:36.728Z,3.67
2019-04-23T19:35:59.803Z,4.93
2019-04-23T19:38:01.541Z,4.43
2019-04-23T19:40:12.034Z,3.63
2019-04-23T19:42:42.504Z,4.43
2019-04-23T19:44:47.664Z,4.33
2019-04-23T19:47:17.687Z,4.43
2019-04-23T19:49:09.878Z,4.60
2019-04-23T19:51:17.166Z,5.37
2019-04-23T19:55:57.048Z,4.53
2019-04-23T19:58:04.234Z,4.20
2019-04-23T20:00:31.073Z,4.73
2019-04-23T20:02:35.487Z,4.10
2019-04-23T20:04:12.909Z,4.37
2019-04-23T20:06:42.069Z,4.73
2019-04-23T20:08:48.955Z,4.63
2019-04-23T20:10:39.219Z,4.20
2019-04-23T20:12:40.690Z,4.30
2019-04-23T20:14:52.315Z,4.97
2019-04-23T20:19:29.950Z,5.47
2019-04-23T20:21:29.959Z,6.00
2019-04-23T20:28:14.874Z,4.53
2019-04-23T20:35:24.193Z,4.30
2019-04-23T20:39:50.810Z,4.80
2019-04-23T20:42:12.294Z,4.03
2019-04-23T20:44:01.356Z,4.50
2019-04-23T20:46:27.374Z,4.20
2019-04-23T20:48:25.009Z,4.40
2019-04-23T20:50:17.839Z,3.47
2019-04-23T20:52:22.987Z,4.53
2019-04-23T20:57:12.504Z,5.60
2019-04-23T20:59:11.355Z,4.00
2019-04-23T21:03:47.172Z,4.30
2019-04-23T21:05:41.315Z,3.70
2019-04-23T21:07:57.545Z,4.47
2019-04-23T21:10:18.229Z,4.90
2019-04-23T21:12:51.062Z,5.40
2019-04-23T21:14:57.541Z,4.80
2019-04-23T21:16:49.553Z,5.07
2019-04-23T21:18:47.977Z,5.17
2019-04-23T21:25:08.163Z,4.10
2019-04-23T21:27:40.912Z,4.57
2019-04-23T21:32:09.499Z,4.67
2019-04-23T21:36:25.620Z,5.40
2019-04-23T21:38:55.829Z,4.50
2019-04-23T21:41:07.764Z,4.70
2019-04-23T21:43:09.370Z,4.37
2019-04-23T21:45:13.980Z,4.97
2019-04-23T21:47:14.683Z,5.17
2019-04-23T21:49:43.845Z,4.13
2019-04-23T21:51:46.291Z,4.50
2019-04-23T21:53:47.785Z,4.27
2019-04-23T21:55:54.085Z,4.00
2019-04-23T22:00:00.571Z,4.30
2019-04-23T22:02:28.752Z,4.60
2019-04-23T22:06:22.441Z,4.60
2019-04-23T22:08:28.979Z,4.87
2019-04-23T22:10:39.841Z,5.00
2019-04-23T22:12:46.926Z,4.73
2019-04-23T22:14:47.549Z,4.57
2019-04-23T22:16:58.117Z,4.57
2019-04-23T22:21:04.881Z,4.00
2019-04-23T22:23:10.691Z,4.30
2019-04-23T22:25:13.072Z,4.10
2019-04-23T22:27:16.778Z,4.30
2019-04-23T22:29:38.028Z,3.90
2019-04-23T22:31:41.714Z,4.03
2019-04-23T22:33:55.225Z,3.80
2019-04-23T22:35:57.485Z,3.77
2019-04-23T22:38:09.567Z,3.97
2019-04-23T22:42:22.264Z,5.03
2019-04-23T22:46:27.862Z,4.73
2019-04-23T22:48:35.015Z,4.53
2019-04-23T22:50:47.316Z,4.90
2019-04-23T22:52:51.768Z,4.20
2019-04-23T22:54:57.128Z,4.10
2019-04-23T22:57:05.008Z,3.70
2019-04-23T23:01:26.374Z,4.90
2019-04-23T23:03:33.366Z,3.33
2019-04-23T23:08:04.574Z,4.70
2019-04-23T23:10:06.846Z,4.10
2019-04-23T23:12:17.688Z,5.07
2019-04-23T23:16:19.958Z,4.80
2019-04-23T23:18:22.910Z,5.07
2019-04-23T23:20:33.133Z,6.03
2019-04-23T23:22:51.327Z,4.67
2019-04-23T23:24:46.052Z,4.27
2019-04-23T23:26:54.260Z,4.07
2019-04-23T23:28:58.323Z,4.60
2019-04-23T23:33:09.440Z,4.40
2019-04-23T23:39:27.514Z,4.40
2019-04-23T23:43:41.759Z,4.93
2019-04-23T23:45:56.036Z,4.10
2019-04-23T23:50:16.246Z,4.73
2019-04-23T23:52:02.818Z,4.83
2019-04-23T23:56:19.505Z,3.60
2019-04-23T23:58:40.663Z,4.23
